Ile Surprise, New Caledonia
Current Conditions -  °F | °C
As of 7:30 AM on Tuesday 27 Jan 2015 (Local Time) from NWWW Reporting Station
Broken Clouds Broken Clouds  
Wind Chill: 79°   Ceiling: 4200
Heat Index: 82°   Visibility: 6mi
Dew Point: 75°   Wind: 2mph
Humidity: 89%   Direction: NA
Pressure: 29.59"   Gusts: NA
Location:  18.48°S, 163.08°E
Report Text: NWWW 262030Z AUTO VRB02KT 9999 BKN042 BKN064 26/24 Q1002
Loading
Personal Weather Stations






























Interactive Weather Map New forecast layout! Learn more

10-Day Weather Forecast

Advertisements
Track Severe Weather on mobile